Página principal
METAR-TAF:

METAR-TAF

Aeroportos :

Kuwait, Kuwait

Aeroporto Internacional do Kuwait

latitude: 29-13N, longitude: 047-59E, altura: 55 m

Observação actual do tempo

O boletim foi feito há 51 minutos, às 22:00 UTC
Vento 4 kt de sul
Temperatura 18°C
Humidade 77%
Pressão 1012 hPa
Visibilidade 10 km ou mais
Poucas nuvensa uma altura de 4000 ft
Nuvens dispersasa uma altura de 8000 ft

METAR: OKBK 212200Z 17004KT 9999 FEW040 SCT080 18/14 Q1012 NOSIG

Hora: 01:51 (22:51 UTC)

Previsão

O boletim foi feito há 6 horas e 6 minutos, às 16:45 UTC
Previsão válida de 21 às 18 UTC a 22 às 24 UTC
Vento 12 kt de sudeste com rajadas de 22 kt
Visibilidade: 7000 m
Nuvens dispersasa uma altura de 4000 ft
Nuvens fragmentadasa uma altura de 8000 ft
Temporariamente
de 21 às 18 UTC a 22 às 02 UTC
Visibilidade: 3000 m
Poucas nuvensa uma altura de 2500 ft, Cumulonimbus.
trovoada, chuva fraca

TAF: OKBK 211645Z 2118/2224 14012G22KT 7000 SCT040 BKN080 TEMPO 2118/2202 3000 -TSRA FEW025CB

Observações e previsões do tempo de mais de 4000 aeroportos (mensagens METAR e TAF).

As estações disponíveis são os pontos amarelos e vermelhos sobre o mapa.

Mova o rato sobre o mapa para ver o nome da estação.

Depois clique no ponto para visualizar as observações e previsões meteorológicas.

Para alterar o mapa : clique nos botões verdes com uma cruz preta para aumentar o zoom; no botão verde com uma pitada de zoom; ou nas setas verdes para mapas adjacentes.


METAR-TAF: